MET'MAP v2.0
soon released !

Expected late october,
this new version will be
more efficient, smarter,
and hosted on a brand new
server x3 powerfull...
...and still free !


Not compatible ?
Try the mobile version !

LOG IN : | Subscribe | Disclaimer | Who is Orbifly ? |
ICAO code :

TAF - LFOI Abbeville - 14 Dec 2019 22:33 UTC
Data Sources :     NOAA   


- Airport Elevation : 220 ft
- IATA code : XAB
- No reported NOTAMs.


LFOI - Abbeville

Latest METAR recorded : 0000/00/00 G :13 TAF ETNG 131700Z 1318/1409 27012G23KT 9999 BKN013 BECMG 1318/1320 BKN030 BECMG 1323/1401 21010KT TEMPO 1402/1409 3500 RADZ BKN006 BECMG 1405/1407 25020G35KT PROB40 TEMPO 1407/1409 27022G44KT
NO TAF


MET'MAP, your aeronautical weather chart ! - Copyright ORBIFLY December 2007

Programming & Development : Alexandra Zaïnal
Co-Developer : Marc-Olivier Méhu
Technical & hardware support : Manuel Goepfert
Concept & Financing : Baudouin d'Aumeries